INFORMAÇÕES METEOROLÓGICAS
METAR FOR SBSV
ADDS - METARS form results

(0156 UTC 22 January 2018)
Data provider http://aviationweather.gov/adds/metars/
 
METAR text: SBSV 220200Z 07010KT 9999 FEW020 26/22 Q1012
Conditions at: SBSV (SALVADOR/DOIS JU, BR) observed 0200 UTC 22 January 2018
Temperature: 26.0°C (79°F)
Dewpoint: 22.0°C (72°F) [RH = 79%]
Pressure (altimeter): 29.88 inches Hg (1012.0 mb)
Winds: from the ENE (70 degrees) at 12 MPH (10 knots; 5.2 m/s)
Visibility: 6 or more miles (10+ km)
Ceiling: at least 12,000 feet AGL
Clouds: few clouds at 2000 feet AGL
Weather: no significant weather observed at this time

METAR text: SBSV 220100Z 07011KT 9999 FEW020 26/22 Q1013
Conditions at: SBSV (SALVADOR/DOIS JU, BR) observed 0100 UTC 22 January 2018
Temperature: 26.0°C (79°F)
Dewpoint: 22.0°C (72°F) [RH = 79%]
Pressure (altimeter): 29.91 inches Hg (1013.0 mb)
Winds: from the ENE (70 degrees) at 13 MPH (11 knots; 5.7 m/s)
Visibility: 6 or more miles (10+ km)
Ceiling: at least 12,000 feet AGL
Clouds: few clouds at 2000 feet AGL
Weather: no significant weather observed at this time

Forecast for: SBSV (SALVADOR/DOIS JU, BR)
Text: TAF SBSV 212100Z 2200/2224 10009KT 9000 SCT020 TN25/2207Z TX30/2215Z RMK PEA
Forecast period: 0000 UTC 22 January 2018 to 0000 UTC 23 January 2018
Forecast type: FROM: standard forecast or significant change
Winds: from the E (100 degrees) at 10 MPH (9 knots; 4.7 m/s)
Visibility: 6 miles (9 km)
Clouds: scattered clouds at 2000 feet AGL
Weather: PE  (ice pellets)

 MAPA DO AEROPORTO

 INFORMAÇÕES DA PISTA
Pista 10 Tamanho da pista 9859 ft Largura da pista 148 ft
Elevação da pista 30 ft Ranhura da pista 0 ft Proa da pista 78
Pista 28 Tamanho da pista 9859 ft Largura da pista 148 ft
Elevação da pista 64 ft Ranhura da pista 0 ft Proa da pista 258
Pista 17 Tamanho da pista 4987 ft Largura da pista 148 ft
Elevação da pista 28 ft Ranhura da pista 0 ft Proa da pista 143
Pista 35 Tamanho da pista 4987 ft Largura da pista 148 ft
Elevação da pista 34 ft Ranhura da pista 0 ft Proa da pista 323

 FREQUÊNCIAS DO AEROPORTO
Tipo APP Nome SALVADOR C Frequência 120.8 MHZ
Tipo ATIS Nome SALVADOR A Frequência 127.75 MHZ
Tipo CLD Nome SALVADOR T Frequência 121.1 MHZ
Tipo GND Nome GND Frequência 121.9 MHZ
Tipo OPS Nome SALVADOR O Frequência 122.5 MHZ
Tipo TWR Nome SALVADOR T Frequência 118.3 MHZ

 AUXÍLIOS DE NAVEGAÇÃO PRÓXIMOS AO AEROPORTO
Tipo NDB Nome Alagoinhas Frequência 310 KHZ
Tipo NDB Nome Cimbra Frequência 220 KHZ
Tipo NDB Nome Ipitanga Frequência 240 KHZ
Tipo VOR-DME Nome Salvador Frequência 116500 KHZ
Tipo NDB Nome Salvador Frequência 275 KHZ





Powered by Virtual Airlines Manager [v2.6.2]